sensor_id;sensor_type;location;lat;lon;timestamp;temperature;humidity
7900;DHT22;3995;50.856;4.404;2022-12-29T00:00:20;13.50;71.00
7900;DHT22;3995;50.856;4.404;2022-12-29T00:02:49;13.50;70.90
7900;DHT22;3995;50.856;4.404;2022-12-29T00:05:16;13.50;70.80
7900;DHT22;3995;50.856;4.404;2022-12-29T00:07:44;13.50;70.80
7900;DHT22;3995;50.856;4.404;2022-12-29T00:10:11;13.50;70.70
7900;DHT22;3995;50.856;4.404;2022-12-29T00:12:38;13.50;70.60
7900;DHT22;3995;50.856;4.404;2022-12-29T00:15:22;13.50;70.50
7900;DHT22;3995;50.856;4.404;2022-12-29T00:18:07;13.50;70.40
7900;DHT22;3995;50.856;4.404;2022-12-29T00:20:35;13.50;70.20
7900;DHT22;3995;50.856;4.404;2022-12-29T00:23:20;13.50;70.10
7900;DHT22;3995;50.856;4.404;2022-12-29T00:26:11;13.50;70.00
7900;DHT22;3995;50.856;4.404;2022-12-29T00:28:56;13.50;69.80
7900;DHT22;3995;50.856;4.404;2022-12-29T00:31:41;13.50;69.70
7900;DHT22;3995;50.856;4.404;2022-12-29T00:34:27;13.50;69.50
7900;DHT22;3995;50.856;4.404;2022-12-29T00:37:11;13.50;69.30
7900;DHT22;3995;50.856;4.404;2022-12-29T00:39:39;13.50;69.20
7900;DHT22;3995;50.856;4.404;2022-12-29T00:42:23;13.50;69.00
7900;DHT22;3995;50.856;4.404;2022-12-29T00:45:08;13.50;68.90
7900;DHT22;3995;50.856;4.404;2022-12-29T00:47:36;13.50;68.90
7900;DHT22;3995;50.856;4.404;2022-12-29T00:50:06;13.50;68.80
7900;DHT22;3995;50.856;4.404;2022-12-29T00:52:32;13.50;68.60
7900;DHT22;3995;50.856;4.404;2022-12-29T00:55:00;13.50;68.50
7900;DHT22;3995;50.856;4.404;2022-12-29T00:57:27;13.50;68.40
7900;DHT22;3995;50.856;4.404;2022-12-29T00:59:54;13.50;68.40
7900;DHT22;3995;50.856;4.404;2022-12-29T01:02:21;13.50;68.40
7900;DHT22;3995;50.856;4.404;2022-12-29T01:04:49;13.50;68.30
7900;DHT22;3995;50.856;4.404;2022-12-29T01:07:18;13.50;68.20
7900;DHT22;3995;50.856;4.404;2022-12-29T01:09:45;13.60;68.20
7900;DHT22;3995;50.856;4.404;2022-12-29T01:12:30;13.60;68.20
7900;DHT22;3995;50.856;4.404;2022-12-29T01:15:12;13.50;68.00
7900;DHT22;3995;50.856;4.404;2022-12-29T01:17:39;13.60;68.20
7900;DHT22;3995;50.856;4.404;2022-12-29T01:20:07;13.60;68.30
7900;DHT22;3995;50.856;4.404;2022-12-29T01:22:36;13.60;68.30
7900;DHT22;3995;50.856;4.404;2022-12-29T01:25:04;13.60;68.50
7900;DHT22;3995;50.856;4.404;2022-12-29T01:27:32;13.60;68.80
7900;DHT22;3995;50.856;4.404;2022-12-29T01:29:59;13.60;69.00
7900;DHT22;3995;50.856;4.404;2022-12-29T01:32:26;13.60;69.10
7900;DHT22;3995;50.856;4.404;2022-12-29T01:34:54;13.60;69.30
7900;DHT22;3995;50.856;4.404;2022-12-29T01:37:21;13.60;69.40
7900;DHT22;3995;50.856;4.404;2022-12-29T01:39:50;13.60;69.50
7900;DHT22;3995;50.856;4.404;2022-12-29T01:42:19;13.60;69.70
7900;DHT22;3995;50.856;4.404;2022-12-29T01:44:51;13.60;69.80
7900;DHT22;3995;50.856;4.404;2022-12-29T01:47:29;13.60;69.80
7900;DHT22;3995;50.856;4.404;2022-12-29T01:50:00;13.60;69.80
7900;DHT22;3995;50.856;4.404;2022-12-29T01:52:32;13.50;69.80
7900;DHT22;3995;50.856;4.404;2022-12-29T01:55:04;13.50;69.80
7900;DHT22;3995;50.856;4.404;2022-12-29T01:57:34;13.50;69.80
7900;DHT22;3995;50.856;4.404;2022-12-29T02:00:05;13.50;69.80
7900;DHT22;3995;50.856;4.404;2022-12-29T02:02:33;13.50;69.70
7900;DHT22;3995;50.856;4.404;2022-12-29T02:05:04;13.50;69.60
7900;DHT22;3995;50.856;4.404;2022-12-29T02:07:34;13.50;69.50
7900;DHT22;3995;50.856;4.404;2022-12-29T02:10:04;13.50;69.30
7900;DHT22;3995;50.856;4.404;2022-12-29T02:12:32;13.50;69.20
7900;DHT22;3995;50.856;4.404;2022-12-29T02:15:01;13.50;69.30
7900;DHT22;3995;50.856;4.404;2022-12-29T02:17:43;13.50;69.40
7900;DHT22;3995;50.856;4.404;2022-12-29T02:23:31;13.40;69.60
7900;DHT22;3995;50.856;4.404;2022-12-29T02:26:32;13.40;69.80
7900;DHT22;3995;50.856;4.404;2022-12-29T02:29:26;13.40;70.00
7900;DHT22;3995;50.856;4.404;2022-12-29T02:31:59;13.30;70.20
7900;DHT22;3995;50.856;4.404;2022-12-29T02:34:36;13.20;70.40
7900;DHT22;3995;50.856;4.404;2022-12-29T02:37:11;13.20;70.60
7900;DHT22;3995;50.856;4.404;2022-12-29T02:39:43;13.20;70.60
7900;DHT22;3995;50.856;4.404;2022-12-29T02:42:22;13.20;70.80
7900;DHT22;3995;50.856;4.404;2022-12-29T02:44:55;13.20;70.90
7900;DHT22;3995;50.856;4.404;2022-12-29T02:47:31;13.10;71.00
7900;DHT22;3995;50.856;4.404;2022-12-29T02:50:03;13.10;71.00
7900;DHT22;3995;50.856;4.404;2022-12-29T02:52:36;13.10;71.10
7900;DHT22;3995;50.856;4.404;2022-12-29T02:55:05;13.10;71.10
7900;DHT22;3995;50.856;4.404;2022-12-29T02:57:34;13.10;71.10
7900;DHT22;3995;50.856;4.404;2022-12-29T03:00:05;13.10;71.10
7900;DHT22;3995;50.856;4.404;2022-12-29T03:02:52;13.10;71.00
7900;DHT22;3995;50.856;4.404;2022-12-29T03:05:47;13.10;70.70
7900;DHT22;3995;50.856;4.404;2022-12-29T03:08:22;13.00;70.60
7900;DHT22;3995;50.856;4.404;2022-12-29T03:10:58;12.90;70.70
7900;DHT22;3995;50.856;4.404;2022-12-29T03:13:29;12.90;70.60
7900;DHT22;3995;50.856;4.404;2022-12-29T03:16:21;12.90;70.60
7900;DHT22;3995;50.856;4.404;2022-12-29T03:18:58;12.80;70.70
7900;DHT22;3995;50.856;4.404;2022-12-29T03:21:32;12.80;70.60
7900;DHT22;3995;50.856;4.404;2022-12-29T03:24:15;12.80;70.70
7900;DHT22;3995;50.856;4.404;2022-12-29T03:26:45;12.70;70.80
7900;DHT22;3995;50.856;4.404;2022-12-29T03:29:14;12.70;70.80
7900;DHT22;3995;50.856;4.404;2022-12-29T03:31:44;12.70;70.80
7900;DHT22;3995;50.856;4.404;2022-12-29T03:34:13;12.70;70.90
7900;DHT22;3995;50.856;4.404;2022-12-29T03:36:47;12.70;71.10
7900;DHT22;3995;50.856;4.404;2022-12-29T03:39:17;12.70;71.20
7900;DHT22;3995;50.856;4.404;2022-12-29T03:41:45;12.70;71.50
7900;DHT22;3995;50.856;4.404;2022-12-29T03:44:13;12.80;71.70
7900;DHT22;3995;50.856;4.404;2022-12-29T03:46:40;12.80;71.70
7900;DHT22;3995;50.856;4.404;2022-12-29T03:49:07;12.80;71.70
7900;DHT22;3995;50.856;4.404;2022-12-29T03:51:36;12.80;71.80
7900;DHT22;3995;50.856;4.404;2022-12-29T03:54:03;12.80;71.80
7900;DHT22;3995;50.856;4.404;2022-12-29T03:56:31;12.90;72.00
7900;DHT22;3995;50.856;4.404;2022-12-29T03:58:58;12.90;71.80
7900;DHT22;3995;50.856;4.404;2022-12-29T04:01:25;12.90;71.80
7900;DHT22;3995;50.856;4.404;2022-12-29T04:03:52;12.80;71.60
7900;DHT22;3995;50.856;4.404;2022-12-29T04:06:19;12.80;71.50
7900;DHT22;3995;50.856;4.404;2022-12-29T04:08:48;12.90;71.40
7900;DHT22;3995;50.856;4.404;2022-12-29T04:11:15;12.80;71.10
7900;DHT22;3995;50.856;4.404;2022-12-29T04:13:43;12.80;71.00
7900;DHT22;3995;50.856;4.404;2022-12-29T04:16:10;12.80;70.80
7900;DHT22;3995;50.856;4.404;2022-12-29T04:18:37;12.80;70.70
7900;DHT22;3995;50.856;4.404;2022-12-29T04:21:05;12.80;70.60
7900;DHT22;3995;50.856;4.404;2022-12-29T04:23:34;12.80;70.40
7900;DHT22;3995;50.856;4.404;2022-12-29T04:26:03;12.80;70.30
7900;DHT22;3995;50.856;4.404;2022-12-29T04:28:32;12.80;70.20
7900;DHT22;3995;50.856;4.404;2022-12-29T04:30:59;12.80;70.20
7900;DHT22;3995;50.856;4.404;2022-12-29T04:33:26;12.80;70.10
7900;DHT22;3995;50.856;4.404;2022-12-29T04:35:54;12.80;70.10
7900;DHT22;3995;50.856;4.404;2022-12-29T04:38:22;12.80;70.10
7900;DHT22;3995;50.856;4.404;2022-12-29T04:40:51;12.80;70.10
7900;DHT22;3995;50.856;4.404;2022-12-29T04:43:20;12.90;70.30
7900;DHT22;3995;50.856;4.404;2022-12-29T04:45:48;12.80;70.30
7900;DHT22;3995;50.856;4.404;2022-12-29T04:48:15;12.80;70.20
7900;DHT22;3995;50.856;4.404;2022-12-29T04:50:43;12.80;70.20
7900;DHT22;3995;50.856;4.404;2022-12-29T04:53:10;12.90;70.30
7900;DHT22;3995;50.856;4.404;2022-12-29T04:55:38;12.80;70.10
7900;DHT22;3995;50.856;4.404;2022-12-29T04:58:05;12.90;70.20
7900;DHT22;3995;50.856;4.404;2022-12-29T05:00:34;12.90;70.20
7900;DHT22;3995;50.856;4.404;2022-12-29T05:03:01;12.90;70.20
7900;DHT22;3995;50.856;4.404;2022-12-29T05:05:28;12.90;70.10
7900;DHT22;3995;50.856;4.404;2022-12-29T05:07:55;12.90;70.10
7900;DHT22;3995;50.856;4.404;2022-12-29T05:10:22;12.90;70.00
7900;DHT22;3995;50.856;4.404;2022-12-29T05:12:50;12.90;70.00
7900;DHT22;3995;50.856;4.404;2022-12-29T05:15:17;12.90;70.00
7900;DHT22;3995;50.856;4.404;2022-12-29T05:17:45;12.90;69.80
7900;DHT22;3995;50.856;4.404;2022-12-29T05:20:13;12.90;69.80
7900;DHT22;3995;50.856;4.404;2022-12-29T05:22:40;12.90;69.80
7900;DHT22;3995;50.856;4.404;2022-12-29T05:25:08;13.00;69.80
7900;DHT22;3995;50.856;4.404;2022-12-29T05:27:36;13.00;70.20
7900;DHT22;3995;50.856;4.404;2022-12-29T05:30:04;12.90;69.30
7900;DHT22;3995;50.856;4.404;2022-12-29T05:32:31;12.90;69.10
7900;DHT22;3995;50.856;4.404;2022-12-29T05:34:59;12.90;69.10
7900;DHT22;3995;50.856;4.404;2022-12-29T05:37:27;13.00;69.10
7900;DHT22;3995;50.856;4.404;2022-12-29T05:39:54;12.90;69.00
7900;DHT22;3995;50.856;4.404;2022-12-29T05:42:21;12.90;68.90
7900;DHT22;3995;50.856;4.404;2022-12-29T05:44:49;13.00;68.90
7900;DHT22;3995;50.856;4.404;2022-12-29T05:47:19;13.00;68.60
7900;DHT22;3995;50.856;4.404;2022-12-29T05:49:46;13.00;68.40
7900;DHT22;3995;50.856;4.404;2022-12-29T05:52:15;13.00;68.10
7900;DHT22;3995;50.856;4.404;2022-12-29T05:54:42;13.00;67.80
7900;DHT22;3995;50.856;4.404;2022-12-29T05:57:09;13.00;67.60
7900;DHT22;3995;50.856;4.404;2022-12-29T05:59:36;12.90;67.30
7900;DHT22;3995;50.856;4.404;2022-12-29T06:02:04;13.00;67.30
7900;DHT22;3995;50.856;4.404;2022-12-29T06:04:31;13.00;67.10
7900;DHT22;3995;50.856;4.404;2022-12-29T06:06:59;13.00;67.00
7900;DHT22;3995;50.856;4.404;2022-12-29T06:09:28;12.90;66.80
7900;DHT22;3995;50.856;4.404;2022-12-29T06:11:55;13.00;66.90
7900;DHT22;3995;50.856;4.404;2022-12-29T06:14:22;13.00;66.80
7900;DHT22;3995;50.856;4.404;2022-12-29T06:16:49;13.00;66.50
7900;DHT22;3995;50.856;4.404;2022-12-29T06:19:19;12.90;66.30
7900;DHT22;3995;50.856;4.404;2022-12-29T06:21:46;12.90;66.10
7900;DHT22;3995;50.856;4.404;2022-12-29T06:24:14;12.90;65.90
7900;DHT22;3995;50.856;4.404;2022-12-29T06:26:43;12.90;65.80
7900;DHT22;3995;50.856;4.404;2022-12-29T06:29:10;12.90;65.70
7900;DHT22;3995;50.856;4.404;2022-12-29T06:31:38;12.90;65.50
7900;DHT22;3995;50.856;4.404;2022-12-29T06:34:06;12.90;65.40
7900;DHT22;3995;50.856;4.404;2022-12-29T06:36:34;12.90;65.30
7900;DHT22;3995;50.856;4.404;2022-12-29T06:39:01;12.90;65.30
7900;DHT22;3995;50.856;4.404;2022-12-29T06:41:28;12.90;65.30
7900;DHT22;3995;50.856;4.404;2022-12-29T06:43:57;12.90;65.30
7900;DHT22;3995;50.856;4.404;2022-12-29T06:46:24;12.90;65.10
7900;DHT22;3995;50.856;4.404;2022-12-29T06:48:52;12.90;65.20
7900;DHT22;3995;50.856;4.404;2022-12-29T06:51:19;12.90;65.20
7900;DHT22;3995;50.856;4.404;2022-12-29T06:53:46;12.90;65.10
7900;DHT22;3995;50.856;4.404;2022-12-29T06:56:13;12.90;65.00
7900;DHT22;3995;50.856;4.404;2022-12-29T06:58:40;12.90;65.10
7900;DHT22;3995;50.856;4.404;2022-12-29T07:01:12;12.90;64.90
7900;DHT22;3995;50.856;4.404;2022-12-29T07:03:41;13.00;64.80
7900;DHT22;3995;50.856;4.404;2022-12-29T07:06:08;12.90;64.60
7900;DHT22;3995;50.856;4.404;2022-12-29T07:08:36;13.00;64.80
7900;DHT22;3995;50.856;4.404;2022-12-29T07:11:04;13.00;64.70
7900;DHT22;3995;50.856;4.404;2022-12-29T07:13:31;13.00;64.60
7900;DHT22;3995;50.856;4.404;2022-12-29T07:15:59;12.90;64.40
7900;DHT22;3995;50.856;4.404;2022-12-29T07:18:28;12.90;64.30
7900;DHT22;3995;50.856;4.404;2022-12-29T07:20:55;12.90;64.20
7900;DHT22;3995;50.856;4.404;2022-12-29T07:23:23;12.90;64.20
7900;DHT22;3995;50.856;4.404;2022-12-29T07:25:50;12.90;64.20
7900;DHT22;3995;50.856;4.404;2022-12-29T07:28:25;13.00;64.20
7900;DHT22;3995;50.856;4.404;2022-12-29T07:30:52;13.00;64.20
7900;DHT22;3995;50.856;4.404;2022-12-29T07:33:19;13.00;64.10
7900;DHT22;3995;50.856;4.404;2022-12-29T07:35:48;13.00;64.10
7900;DHT22;3995;50.856;4.404;2022-12-29T07:38:15;13.00;64.00
7900;DHT22;3995;50.856;4.404;2022-12-29T07:40:43;13.00;63.90
7900;DHT22;3995;50.856;4.404;2022-12-29T07:43:10;13.00;63.80
7900;DHT22;3995;50.856;4.404;2022-12-29T07:45:38;13.00;63.60
7900;DHT22;3995;50.856;4.404;2022-12-29T07:48:05;13.00;63.20
7900;DHT22;3995;50.856;4.404;2022-12-29T07:50:33;13.00;63.10
7900;DHT22;3995;50.856;4.404;2022-12-29T07:53:02;13.00;63.00
7900;DHT22;3995;50.856;4.404;2022-12-29T07:55:30;13.00;63.00
7900;DHT22;3995;50.856;4.404;2022-12-29T07:57:57;13.00;63.00
7900;DHT22;3995;50.856;4.404;2022-12-29T08:00:25;13.00;63.00
7900;DHT22;3995;50.856;4.404;2022-12-29T08:02:53;13.00;62.80
7900;DHT22;3995;50.856;4.404;2022-12-29T08:05:20;13.00;62.80
7900;DHT22;3995;50.856;4.404;2022-12-29T08:07:48;13.00;62.70
7900;DHT22;3995;50.856;4.404;2022-12-29T08:10:17;13.00;62.60
7900;DHT22;3995;50.856;4.404;2022-12-29T08:12:45;13.00;62.50
7900;DHT22;3995;50.856;4.404;2022-12-29T08:15:12;13.00;62.60
7900;DHT22;3995;50.856;4.404;2022-12-29T08:17:40;13.00;62.50
7900;DHT22;3995;50.856;4.404;2022-12-29T08:20:08;13.00;62.10
7900;DHT22;3995;50.856;4.404;2022-12-29T08:22:36;13.00;62.00
7900;DHT22;3995;50.856;4.404;2022-12-29T08:25:04;13.00;61.80
7900;DHT22;3995;50.856;4.404;2022-12-29T08:27:33;13.00;61.70
7900;DHT22;3995;50.856;4.404;2022-12-29T08:30:00;13.00;61.60
7900;DHT22;3995;50.856;4.404;2022-12-29T08:32:28;13.00;61.60
7900;DHT22;3995;50.856;4.404;2022-12-29T08:34:56;13.00;61.60
7900;DHT22;3995;50.856;4.404;2022-12-29T08:37:23;13.00;61.40
7900;DHT22;3995;50.856;4.404;2022-12-29T08:39:51;13.00;61.40
7900;DHT22;3995;50.856;4.404;2022-12-29T08:42:18;13.00;61.40
7900;DHT22;3995;50.856;4.404;2022-12-29T08:44:46;13.00;61.50
7900;DHT22;3995;50.856;4.404;2022-12-29T08:47:13;13.00;61.20
7900;DHT22;3995;50.856;4.404;2022-12-29T08:49:41;13.00;61.10
7900;DHT22;3995;50.856;4.404;2022-12-29T08:52:09;13.00;61.00
7900;DHT22;3995;50.856;4.404;2022-12-29T08:54:36;13.00;61.10
7900;DHT22;3995;50.856;4.404;2022-12-29T08:57:04;13.00;61.00
7900;DHT22;3995;50.856;4.404;2022-12-29T08:59:34;13.00;61.10
7900;DHT22;3995;50.856;4.404;2022-12-29T09:02:03;13.00;60.90
7900;DHT22;3995;50.856;4.404;2022-12-29T09:04:30;13.00;60.80
7900;DHT22;3995;50.856;4.404;2022-12-29T09:06:57;13.00;60.90
7900;DHT22;3995;50.856;4.404;2022-12-29T09:09:25;13.00;61.80
7900;DHT22;3995;50.856;4.404;2022-12-29T09:11:52;13.00;61.10
7900;DHT22;3995;50.856;4.404;2022-12-29T09:14:23;13.00;61.20
7900;DHT22;3995;50.856;4.404;2022-12-29T09:16:51;13.10;61.20
7900;DHT22;3995;50.856;4.404;2022-12-29T09:19:37;13.00;61.20
7900;DHT22;3995;50.856;4.404;2022-12-29T09:22:04;13.00;61.10
7900;DHT22;3995;50.856;4.404;2022-12-29T09:24:32;13.00;61.10
7900;DHT22;3995;50.856;4.404;2022-12-29T09:26:59;13.00;61.20
7900;DHT22;3995;50.856;4.404;2022-12-29T09:29:26;13.00;61.10
7900;DHT22;3995;50.856;4.404;2022-12-29T09:31:53;13.00;61.20
7900;DHT22;3995;50.856;4.404;2022-12-29T09:34:21;13.00;61.40
7900;DHT22;3995;50.856;4.404;2022-12-29T09:36:50;13.00;61.60
7900;DHT22;3995;50.856;4.404;2022-12-29T09:39:17;13.00;61.60
7900;DHT22;3995;50.856;4.404;2022-12-29T09:41:48;13.00;61.60
7900;DHT22;3995;50.856;4.404;2022-12-29T09:44:21;13.00;61.60
7900;DHT22;3995;50.856;4.404;2022-12-29T09:46:51;13.00;61.50
7900;DHT22;3995;50.856;4.404;2022-12-29T09:49:24;12.90;61.50
7900;DHT22;3995;50.856;4.404;2022-12-29T09:51:56;13.00;61.50
7900;DHT22;3995;50.856;4.404;2022-12-29T09:54:37;13.00;61.40
7900;DHT22;3995;50.856;4.404;2022-12-29T09:57:13;13.00;61.40
7900;DHT22;3995;50.856;4.404;2022-12-29T09:59:42;13.00;61.40
7900;DHT22;3995;50.856;4.404;2022-12-29T10:02:22;13.00;61.30
7900;DHT22;3995;50.856;4.404;2022-12-29T10:04:51;13.00;61.00
7900;DHT22;3995;50.856;4.404;2022-12-29T10:07:36;13.00;61.00
7900;DHT22;3995;50.856;4.404;2022-12-29T10:10:18;13.00;60.70
7900;DHT22;3995;50.856;4.404;2022-12-29T10:13:04;13.00;60.70
7900;DHT22;3995;50.856;4.404;2022-12-29T10:15:49;13.10;60.60
7900;DHT22;3995;50.856;4.404;2022-12-29T10:18:33;13.00;60.50
7900;DHT22;3995;50.856;4.404;2022-12-29T10:21:07;13.00;60.40
7900;DHT22;3995;50.856;4.404;2022-12-29T10:23:40;13.00;60.30
7900;DHT22;3995;50.856;4.404;2022-12-29T10:26:14;13.00;60.20
7900;DHT22;3995;50.856;4.404;2022-12-29T10:28:44;13.00;60.20
7900;DHT22;3995;50.856;4.404;2022-12-29T10:31:16;13.00;60.20
7900;DHT22;3995;50.856;4.404;2022-12-29T10:33:49;13.00;60.10
7900;DHT22;3995;50.856;4.404;2022-12-29T10:36:28;13.00;60.10
7900;DHT22;3995;50.856;4.404;2022-12-29T10:39:06;13.00;60.00
7900;DHT22;3995;50.856;4.404;2022-12-29T10:41:43;13.00;60.00
7900;DHT22;3995;50.856;4.404;2022-12-29T10:44:14;13.00;60.10
7900;DHT22;3995;50.856;4.404;2022-12-29T10:46:43;13.00;60.00
7900;DHT22;3995;50.856;4.404;2022-12-29T10:49:16;13.00;60.00
7900;DHT22;3995;50.856;4.404;2022-12-29T10:51:47;13.10;60.10
7900;DHT22;3995;50.856;4.404;2022-12-29T10:54:22;13.10;60.00
7900;DHT22;3995;50.856;4.404;2022-12-29T10:56:52;13.10;59.80
7900;DHT22;3995;50.856;4.404;2022-12-29T10:59:23;13.10;59.90
7900;DHT22;3995;50.856;4.404;2022-12-29T11:01:58;13.10;59.80
7900;DHT22;3995;50.856;4.404;2022-12-29T11:04:35;13.20;59.80
7900;DHT22;3995;50.856;4.404;2022-12-29T11:07:06;13.20;59.70
7900;DHT22;3995;50.856;4.404;2022-12-29T11:09:38;13.10;59.60
7900;DHT22;3995;50.856;4.404;2022-12-29T11:12:22;13.20;59.70
7900;DHT22;3995;50.856;4.404;2022-12-29T11:15:02;13.20;59.60
7900;DHT22;3995;50.856;4.404;2022-12-29T11:17:43;13.20;59.80
7900;DHT22;3995;50.856;4.404;2022-12-29T11:20:35;13.20;59.80
7900;DHT22;3995;50.856;4.404;2022-12-29T11:23:05;13.30;59.80
7900;DHT22;3995;50.856;4.404;2022-12-29T11:25:34;13.20;59.80
7900;DHT22;3995;50.856;4.404;2022-12-29T11:28:03;13.20;59.70
7900;DHT22;3995;50.856;4.404;2022-12-29T11:30:39;13.30;59.70
7900;DHT22;3995;50.856;4.404;2022-12-29T11:33:08;13.20;59.70
7900;DHT22;3995;50.856;4.404;2022-12-29T11:35:40;13.30;59.80
7900;DHT22;3995;50.856;4.404;2022-12-29T11:38:18;13.30;59.80
7900;DHT22;3995;50.856;4.404;2022-12-29T11:40:48;13.30;60.00
7900;DHT22;3995;50.856;4.404;2022-12-29T11:43:24;13.30;60.30
7900;DHT22;3995;50.856;4.404;2022-12-29T11:45:54;13.30;60.40
7900;DHT22;3995;50.856;4.404;2022-12-29T11:48:22;13.20;60.40
7900;DHT22;3995;50.856;4.404;2022-12-29T11:50:51;13.30;60.70
7900;DHT22;3995;50.856;4.404;2022-12-29T11:53:21;13.20;60.80
7900;DHT22;3995;50.856;4.404;2022-12-29T11:55:53;13.20;60.90
7900;DHT22;3995;50.856;4.404;2022-12-29T11:58:29;13.20;60.70
7900;DHT22;3995;50.856;4.404;2022-12-29T12:01:01;13.20;60.60
7900;DHT22;3995;50.856;4.404;2022-12-29T12:03:32;13.20;60.50
7900;DHT22;3995;50.856;4.404;2022-12-29T12:06:02;13.20;60.40
7900;DHT22;3995;50.856;4.404;2022-12-29T12:08:36;13.20;60.40
7900;DHT22;3995;50.856;4.404;2022-12-29T12:11:09;13.20;60.40
7900;DHT22;3995;50.856;4.404;2022-12-29T12:13:40;13.20;60.50
7900;DHT22;3995;50.856;4.404;2022-12-29T12:16:14;13.20;60.70
7900;DHT22;3995;50.856;4.404;2022-12-29T12:18:46;13.10;60.40
7900;DHT22;3995;50.856;4.404;2022-12-29T12:21:22;13.20;60.50
7900;DHT22;3995;50.856;4.404;2022-12-29T12:24:08;13.10;60.80
7900;DHT22;3995;50.856;4.404;2022-12-29T12:26:53;13.20;61.10
7900;DHT22;3995;50.856;4.404;2022-12-29T12:29:25;13.20;61.30
7900;DHT22;3995;50.856;4.404;2022-12-29T12:31:57;13.10;61.30
7900;DHT22;3995;50.856;4.404;2022-12-29T12:34:30;13.10;61.40
7900;DHT22;3995;50.856;4.404;2022-12-29T12:37:10;13.10;61.70
7900;DHT22;3995;50.856;4.404;2022-12-29T12:39:47;13.20;61.80
7900;DHT22;3995;50.856;4.404;2022-12-29T12:42:32;13.10;61.70
7900;DHT22;3995;50.856;4.404;2022-12-29T12:45:22;13.20;61.80
7900;DHT22;3995;50.856;4.404;2022-12-29T12:48:05;13.20;61.60
7900;DHT22;3995;50.856;4.404;2022-12-29T12:50:45;13.20;61.50
7900;DHT22;3995;50.856;4.404;2022-12-29T12:53:46;13.20;61.30
7900;DHT22;3995;50.856;4.404;2022-12-29T12:56:40;13.20;61.10
7900;DHT22;3995;50.856;4.404;2022-12-29T12:59:25;13.20;61.20
7900;DHT22;3995;50.856;4.404;2022-12-29T13:02:03;13.20;61.30
7900;DHT22;3995;50.856;4.404;2022-12-29T13:04:52;13.10;61.00
7900;DHT22;3995;50.856;4.404;2022-12-29T13:07:30;13.20;60.70
7900;DHT22;3995;50.856;4.404;2022-12-29T13:10:16;13.20;60.70
7900;DHT22;3995;50.856;4.404;2022-12-29T13:12:53;13.10;60.50
7900;DHT22;3995;50.856;4.404;2022-12-29T13:15:37;13.10;60.70
7900;DHT22;3995;50.856;4.404;2022-12-29T13:18:17;13.20;61.10
7900;DHT22;3995;50.856;4.404;2022-12-29T13:20:49;13.10;60.10
7900;DHT22;3995;50.856;4.404;2022-12-29T13:23:24;13.10;60.00
7900;DHT22;3995;50.856;4.404;2022-12-29T13:25:58;13.10;60.10
7900;DHT22;3995;50.856;4.404;2022-12-29T13:28:31;13.10;60.10
7900;DHT22;3995;50.856;4.404;2022-12-29T13:31:05;13.10;60.10
7900;DHT22;3995;50.856;4.404;2022-12-29T13:33:45;13.10;60.10
7900;DHT22;3995;50.856;4.404;2022-12-29T13:36:23;13.10;59.90
7900;DHT22;3995;50.856;4.404;2022-12-29T13:38:58;13.10;60.00
7900;DHT22;3995;50.856;4.404;2022-12-29T13:41:31;13.10;60.10
7900;DHT22;3995;50.856;4.404;2022-12-29T13:44:02;13.10;60.10
7900;DHT22;3995;50.856;4.404;2022-12-29T13:46:37;13.10;60.30
7900;DHT22;3995;50.856;4.404;2022-12-29T13:49:08;13.10;60.30
7900;DHT22;3995;50.856;4.404;2022-12-29T13:51:41;13.10;60.30
7900;DHT22;3995;50.856;4.404;2022-12-29T13:54:23;13.10;60.10
7900;DHT22;3995;50.856;4.404;2022-12-29T13:56:59;13.20;60.10
7900;DHT22;3995;50.856;4.404;2022-12-29T13:59:38;13.10;59.90
7900;DHT22;3995;50.856;4.404;2022-12-29T14:02:19;13.10;59.90
7900;DHT22;3995;50.856;4.404;2022-12-29T14:04:59;13.10;60.00
7900;DHT22;3995;50.856;4.404;2022-12-29T14:07:28;13.10;59.90
7900;DHT22;3995;50.856;4.404;2022-12-29T14:09:56;13.10;60.10
7900;DHT22;3995;50.856;4.404;2022-12-29T14:12:36;13.10;60.10
7900;DHT22;3995;50.856;4.404;2022-12-29T14:15:19;13.20;59.90
7900;DHT22;3995;50.856;4.404;2022-12-29T14:18:04;13.20;59.80
7900;DHT22;3995;50.856;4.404;2022-12-29T14:20:32;13.10;59.60
7900;DHT22;3995;50.856;4.404;2022-12-29T14:23:15;13.10;59.70
7900;DHT22;3995;50.856;4.404;2022-12-29T14:26:09;13.10;59.50
7900;DHT22;3995;50.856;4.404;2022-12-29T14:28:38;13.10;59.20
7900;DHT22;3995;50.856;4.404;2022-12-29T14:31:18;13.10;59.30
7900;DHT22;3995;50.856;4.404;2022-12-29T14:34:29;13.10;59.10
7900;DHT22;3995;50.856;4.404;2022-12-29T14:36:58;13.20;59.10
7900;DHT22;3995;50.856;4.404;2022-12-29T14:39:32;13.10;59.20
7900;DHT22;3995;50.856;4.404;2022-12-29T14:42:01;13.10;58.90
7900;DHT22;3995;50.856;4.404;2022-12-29T14:44:30;13.10;58.70
7900;DHT22;3995;50.856;4.404;2022-12-29T14:46:59;13.10;58.60
7900;DHT22;3995;50.856;4.404;2022-12-29T14:49:31;13.10;59.30
7900;DHT22;3995;50.856;4.404;2022-12-29T14:52:07;13.10;60.60
7900;DHT22;3995;50.856;4.404;2022-12-29T14:54:47;13.10;62.20
7900;DHT22;3995;50.856;4.404;2022-12-29T14:57:24;13.10;62.00
7900;DHT22;3995;50.856;4.404;2022-12-29T14:59:54;13.00;62.20
7900;DHT22;3995;50.856;4.404;2022-12-29T15:02:24;13.00;62.30
7900;DHT22;3995;50.856;4.404;2022-12-29T15:04:59;13.00;62.40
7900;DHT22;3995;50.856;4.404;2022-12-29T15:07:27;13.00;62.40
7900;DHT22;3995;50.856;4.404;2022-12-29T15:10:00;12.90;62.40
7900;DHT22;3995;50.856;4.404;2022-12-29T15:12:35;12.90;62.50
7900;DHT22;3995;50.856;4.404;2022-12-29T15:15:18;12.80;62.70
7900;DHT22;3995;50.856;4.404;2022-12-29T15:17:47;12.80;62.90
7900;DHT22;3995;50.856;4.404;2022-12-29T15:20:22;12.70;63.20
7900;DHT22;3995;50.856;4.404;2022-12-29T15:22:54;12.70;63.50
7900;DHT22;3995;50.856;4.404;2022-12-29T15:25:22;12.60;63.60
7900;DHT22;3995;50.856;4.404;2022-12-29T15:28:05;12.60;63.80
7900;DHT22;3995;50.856;4.404;2022-12-29T15:30:33;12.60;63.90
7900;DHT22;3995;50.856;4.404;2022-12-29T15:33:01;12.50;63.90
7900;DHT22;3995;50.856;4.404;2022-12-29T15:35:32;12.50;64.00
7900;DHT22;3995;50.856;4.404;2022-12-29T15:38:00;12.50;64.00
7900;DHT22;3995;50.856;4.404;2022-12-29T15:40:39;12.50;64.00
7900;DHT22;3995;50.856;4.404;2022-12-29T15:46:04;12.50;63.60
7900;DHT22;3995;50.856;4.404;2022-12-29T15:48:31;12.50;63.60
7900;DHT22;3995;50.856;4.404;2022-12-29T15:51:03;12.50;63.50
7900;DHT22;3995;50.856;4.404;2022-12-29T15:53:37;12.50;63.50
7900;DHT22;3995;50.856;4.404;2022-12-29T15:56:07;12.40;63.50
7900;DHT22;3995;50.856;4.404;2022-12-29T15:58:40;12.40;63.50
7900;DHT22;3995;50.856;4.404;2022-12-29T16:01:17;12.50;63.80
7900;DHT22;3995;50.856;4.404;2022-12-29T16:03:45;12.50;63.80
7900;DHT22;3995;50.856;4.404;2022-12-29T16:06:28;12.40;63.70
7900;DHT22;3995;50.856;4.404;2022-12-29T16:08:57;12.50;63.50
7900;DHT22;3995;50.856;4.404;2022-12-29T16:11:29;12.40;63.60
7900;DHT22;3995;50.856;4.404;2022-12-29T16:13:58;12.50;63.70
7900;DHT22;3995;50.856;4.404;2022-12-29T16:16:28;12.40;63.50
7900;DHT22;3995;50.856;4.404;2022-12-29T16:18:57;12.40;63.40
7900;DHT22;3995;50.856;4.404;2022-12-29T16:21:28;12.40;63.40
7900;DHT22;3995;50.856;4.404;2022-12-29T16:24:00;12.40;63.40
7900;DHT22;3995;50.856;4.404;2022-12-29T16:26:28;12.40;63.50
7900;DHT22;3995;50.856;4.404;2022-12-29T16:28:57;12.40;63.40
7900;DHT22;3995;50.856;4.404;2022-12-29T16:31:32;12.40;63.50
7900;DHT22;3995;50.856;4.404;2022-12-29T16:34:10;12.40;64.10
7900;DHT22;3995;50.856;4.404;2022-12-29T16:36:53;12.40;63.20
7900;DHT22;3995;50.856;4.404;2022-12-29T16:39:25;12.40;63.00